Weather observations for the past three days for
Mount Pleasant, Mount Pleasant Municipal Airport
Imperial (Metric)
Date Time (edt) Wind (mph) Vis. (mi.) Weather Sky Cond. Temperature (ºF) Relative Humidity Wind Chill (°F) Heat Index (°F) Pressure Precipitation (in)
Air Dwpt 6 hour altimeter (in) sea level (mb) 1 hr 3 hr 6 hr
Max. Min.
01 12:15 S 8 10.00 Mostly Cloudy BKN021 86 73.4 66% 93 29.95 0.0
01 11:55 S 6 10.00 Mostly Cloudy BKN019 86 73.4 66% 93 29.95 0.0
01 11:35 S 3 10.00 Fair CLR 82.4 73.4 74% 88 29.95 0.0
01 11:15 Vrbl 1 10.00 Fair CLR 82.4 71.6 70% 87 29.96 0.0
01 10:55 Vrbl 1 10.00 Fair CLR 80.6 71.6 74% 85 29.96 0.0
01 10:35 Vrbl 2 10.00 Partly Cloudy SCT029 78.8 71.6 79% 82 29.96 0.0
01 10:15 NW 3 10.00 Mostly Cloudy BKN027 78.8 71.6 79% 82 29.96 0.0
01 09:55 Vrbl 3 10.00 Fair CLR 78.8 71.6 79% 82 29.96 0.0
01 09:35 Vrbl 2 10.00 Fair CLR 77 69.8 79% 79 29.96 0.0
01 09:15 W 3 8.00 Fair CLR 77 69.8 79% 79 29.96 0.0
01 08:55 W 5 7.00 Fair CLR 75.2 69.8 83% 75 29.96 0.0
01 08:35 W 3 5.00 Fair with Haze CLR 73.4 69.8 89% 29.96 0.0
01 08:15 SW 2 4.00 Fog/Mist CLR 71.6 68 88% 29.95 0.0
01 07:55 SW 1 1.00 Fog/Mist CLR 69.8 66.2 72.9 67.3 88% 29.95 0.0
01 07:35 NW 1 0.15 Fog VV000 68 66.2 94% 29.94 0.0
01 07:15 NE 1 0.25 Fog VV002 68 66.2 94% 29.93 0.0
01 06:55 SW 2 3.00 Fog/Mist CLR 68 66.2 94% 29.93 0.0
01 06:35 S 1 4.00 Fog/Mist CLR 68 66.2 94% 29.93 0.0
01 06:15 S 2 8.00 Fair CLR 71.6 68 88% 29.92 0.0
01 05:55 SW 2 8.00 Fair CLR 71.6 68 88% 29.92 0.0
01 05:35 S 3 9.00 Fair CLR 71.6 68 88% 29.92 0.0
01 05:15 S 2 9.00 Fair CLR 71.6 68 88% 29.93 0.0
01 04:55 SW 3 9.00 Fair CLR 71.6 68 88% 29.92 0.0
01 04:35 S 2 10.00 Fair CLR 71.6 68 88% 29.91 0.0
01 04:15 SW 2 9.00 Fair CLR 71.6 68 88% 29.92 0.0
01 03:55 SW 2 10.00 Fair CLR 71.6 68 88% 29.91 0.0
01 03:35 SW 3 10.00 Fair CLR 71.6 68 88% 29.91 0.0
01 03:15 SW 2 10.00 Fair CLR 69.8 68 94% 29.91 0.0
01 02:55 SW 3 10.00 Fair CLR 71.6 68 88% 29.91 0.0
01 02:35 W 2 10.00 Fair CLR 71.6 68 88% 29.91 0.0
01 02:15 W 3 10.00 Fair CLR 71.6 68 88% 29.91 0.0
01 01:55 SW 3 10.00 Fair CLR 71.6 68 80.8 71.8 88% 29.92 0.0
01 01:35 SW 5 10.00 Fair CLR 71.6 68 88% 29.92 0.0
01 01:15 SW 2 10.00 Fair CLR 73.4 68 83% 29.92 0.0
01 00:55 S 2 10.00 Fair CLR 71.6 68 88% 29.92 0.0
01 00:35 W 2 10.00 Fair CLR 73.4 68 83% 29.92 0.0
01 00:15 W 2 10.00 Fair CLR 73.4 68 83% 29.92 0.0
31 23:55 SW 3 10.00 Fair CLR 75.2 68 78% 76 29.92 0.0
31 23:35 W 3 10.00 Fair CLR 75.2 68 78% 76 29.93 0.0
31 23:15 W 6 10.00 Fair CLR 75.2 68 78% 76 29.93 0.0
31 22:55 W 3 10.00 Fair CLR 77 68 74% 79 29.92 0.0
31 22:35 SW 5 10.00 Fair CLR 77 68 74% 79 29.91 0.0
31 22:15 SW 5 10.00 Fair CLR 77 68 74% 79 29.92 0.0
31 21:55 S 7 10.00 Fair CLR 77 68 74% 79 29.91 0.0
31 21:35 S 5 10.00 Fair CLR 77 68 74% 79 29.91 0.0
31 21:15 SW 5 10.00 Fair CLR 78.8 68 70% 81 29.91 0.0
31 20:55 SW 6 10.00 Fair CLR 78.8 68 70% 81 29.91 0.0
31 20:35 SW 7 10.00 Fair CLR 78.8 66.2 65% 81 29.9 0.0
31 20:15 SW 6 10.00 Fair CLR 80.6 66.2 62% 83 29.9 0.0
31 19:55 SW 9 10.00 Fair CLR 80.6 66.2 84.4 78.6 62% 83 29.9 0.0
31 19:35 SW 9 10.00 Fair CLR 82.4 66.2 58% 85 29.89 0.0
31 19:15 SW 10 G 20 10.00 Fair CLR 82.4 66.2 58% 85 29.89 0.0
31 18:55 SW 10 G 20 10.00 Fair CLR 84.2 66.2 55% 87 29.89 0.0
31 18:35 SW 9 10.00 Fair CLR 84.2 66.2 55% 87 29.9 0.0
31 18:15 SW 9 G 17 10.00 Fair CLR 84.2 66.2 55% 87 29.89 0.0
31 17:55 S 9 G 20 10.00 Fair CLR 84.2 66.2 55% 87 29.89 0.0
31 17:35 SW 9 G 16 10.00 A Few Clouds FEW100 82.4 68 62% 85 29.89 0.0
31 17:15 S 12 10.00 Fair CLR 82.4 66.2 58% 85 29.89 0.0
31 16:55 S 13 G 25 10.00 Fair CLR 84.2 66.2 55% 87 29.89 0.0
31 16:35 S 13 G 21 10.00 A Few Clouds FEW110 82.4 68 62% 85 29.9 0.0
31 16:15 S 8 10.00 Partly Cloudy SCT100 80.6 69.8 70% 84 29.91 0.0
31 15:55 S 9 10.00 Partly Cloudy SCT100 78.8 69.8 74% 81 29.92 0.0
31 15:35 S 10 10.00 Fair CLR 80.6 68 66% 83 29.93 0.0
31 15:15 S 10 10.00 Fair CLR 82.4 69.8 66% 86 29.93 0.0
31 14:55 S 13 10.00 Fair CLR 82.4 68 62% 85 29.93 0.0
31 14:35 S 12 10.00 Fair CLR 82.4 68 62% 85 29.94 0.0
31 14:15 S 12 10.00 Fair CLR 80.6 68 66% 83 29.95 0.0
31 13:55 S 8 10.00 A Few Clouds FEW023 FEW120 80.6 68 80.2 69.1 66% 83 29.96 0.0
31 13:35 SE 7 10.00 Overcast FEW023 BKN100 OVC120 78.8 68 70% 81 29.97 0.0
31 13:15 S 7 10.00 Overcast OVC090 77 68 74% 79 29.98 0.0
31 12:55 S 8 10.00 Mostly Cloudy BKN090 BKN110 77 68 74% 79 29.97 0.0
31 12:35 S 8 10.00 Overcast OVC090 75.2 68 78% 76 29.98 0.0
31 12:15 S 6 10.00 Overcast OVC090 73.4 68 83% 29.98 0.0
31 11:55 S 6 10.00 Mostly Cloudy BKN090 BKN100 71.6 68 88% 29.99 0.0
31 11:35 S 6 8.00 Mostly Cloudy BKN090 71.6 68 88% 29.99 0.0
31 11:15 SE 6 7.00 Fog/Mist OVC080 69.8 66.2 88% 29.99 0.0
31 10:55 E 7 5.00 Light Rain Fog/Mist FEW065 OVC080 69.8 66.2 88% 30 0.0 0.11
31 10:35 SE 5 3.00 Light Rain Fog/Mist SCT070 BKN090 OVC120 69.8 66.2 88% 30.02 0.0
31 10:15 SW 3 2.50 Rain Fog/Mist FEW050 SCT070 OVC090 69.8 66.2 88% 30.02 0.0
31 09:55 S 3 5.00 Light Rain Fog/Mist BKN100 BKN110 69.8 66.2 88% 30.02 0.0 0.04
31 09:35 Vrbl 2 4.00 Rain Fog/Mist FEW070 SCT090 BKN110 69.8 66.2 88% 30.02 0.0
31 09:15 W 7 10.00 Overcast BKN090 OVC110 69.8 66.2 88% 30.03 0.0
31 08:55 SW 3 10.00 Overcast OVC090 69.8 64.4 83% 30.01 0.0
31 08:35 S 5 10.00 Overcast OVC090 69.8 64.4 83% 29.99 0.0
31 08:15 S 6 10.00 Overcast BKN100 OVC120 69.8 64.4 83% 29.99 0.0
31 07:55 S 5 10.00 Mostly Cloudy BKN110 69.8 64.4 72 68.7 83% 29.98 0.0
31 07:35 SE 5 10.00 A Few Clouds FEW100 69.8 64.4 83% 29.98 0.0
31 07:15 SE 3 10.00 A Few Clouds FEW120 69.8 64.4 83% 29.98 0.0
31 06:55 SE 3 10.00 A Few Clouds FEW120 69.8 64.4 83% 29.97 0.0
31 06:35 SE 3 10.00 Partly Cloudy SCT120 69.8 64.4 83% 29.98 0.0
31 06:15 SE 5 10.00 Overcast OVC110 69.8 64.4 83% 29.98 0.0
31 05:55 SE 1 10.00 Mostly Cloudy BKN110 69.8 64.4 83% 29.99 0.0
31 05:35 E 3 10.00 Mostly Cloudy BKN110 69.8 64.4 83% 29.99 0.0
31 05:15 S 3 10.00 Overcast OVC100 69.8 66.2 88% 29.99 0.0
31 04:55 SE 2 10.00 Overcast OVC100 69.8 64.4 83% 29.99 0.0
31 04:35 SW 2 10.00 Partly Cloudy SCT100 69.8 64.4 83% 29.98 0.0
31 04:15 SW 2 10.00 Partly Cloudy SCT100 69.8 64.4 83% 29.98 0.0
31 03:55 S 3 10.00 Fair CLR 69.8 66.2 88% 29.98 0.0
31 03:35 S 3 10.00 Fair CLR 69.8 66.2 88% 29.98 0.0
31 03:15 S 6 10.00 Fair CLR 69.8 66.2 88% 29.97 0.0
31 02:55 S 5 10.00 Fair CLR 71.6 66.2 83% 29.98 0.0
31 02:35 S 6 10.00 Fair CLR 71.6 66.2 83% 29.98 0.0
31 02:15 S 6 10.00 Fair CLR 71.6 66.2 83% 29.99 0.0
31 01:55 S 5 10.00 Fair CLR 71.6 66.2 79.2 72 83% 30 0.0
31 01:35 S 3 10.00 Fair CLR 71.6 66.2 83% 30 0.0
31 01:15 S 2 10.00 Fair CLR 73.4 66.2 78% 29.99 0.0
31 00:55 S 5 10.00 Fair CLR 73.4 66.2 78% 29.99 0.0
31 00:35 S 5 10.00 Fair CLR 73.4 66.2 78% 29.99 0.0
31 00:15 SW 7 10.00 Partly Cloudy SCT085 73.4 66.2 78% 29.99 0.0
30 23:55 SW 7 10.00 Overcast OVC085 73.4 66.2 78% 29.99 0.0
30 23:35 SW 8 10.00 Mostly Cloudy BKN085 73.4 66.2 78% 29.99 0.0
30 23:15 SW 6 10.00 Fair CLR 73.4 66.2 78% 29.99 0.0
30 22:55 SW 6 10.00 A Few Clouds FEW085 73.4 66.2 78% 29.99 0.0
30 22:35 W 3 10.00 A Few Clouds FEW085 73.4 64.4 74% 29.99 0.0
30 22:15 W 6 10.00 Partly Cloudy SCT050 SCT080 75.2 66.2 74% 77 29.99 0.0
30 21:55 W 3 10.00 Overcast SCT050 OVC065 75.2 66.2 74% 77 29.99 0.0
30 21:35 W 6 10.00 Overcast FEW032 SCT060 OVC065 75.2 64.4 69% 77 29.98 0.0
30 21:15 SW 7 10.00 Overcast FEW032 OVC060 77 64.4 65% 79 29.97 0.0
30 20:55 SW 7 10.00 Mostly Cloudy BKN060 77 64.4 65% 79 29.96 0.0
30 20:35 SW 7 10.00 Fair CLR 77 64.4 65% 79 29.95 0.0
30 20:15 SW 8 10.00 A Few Clouds FEW042 78.8 64.4 61% 81 29.95 0.0
30 19:55 SW 7 10.00 A Few Clouds FEW044 78.8 64.4 84.9 76.8 61% 81 29.95 0.0
30 19:35 SW 13 10.00 A Few Clouds FEW048 80.6 64.4 58% 82 29.95 0.0
30 19:15 W 12 G 17 10.00 Mostly Cloudy BKN048 82.4 64.4 55% 84 29.95 0.0
30 18:55 SW 6 10.00 Overcast OVC046 82.4 66.2 58% 85 29.94 0.0
30 18:35 S 7 10.00 Overcast OVC046 82.4 64.4 55% 84 29.94 0.0
30 18:15 SW 9 G 18 10.00 Partly Cloudy SCT048 82.4 66.2 58% 85 29.94 0.0
30 17:55 SW 14 G 21 10.00 A Few Clouds FEW050 84.2 64.4 51% 86 29.94 0.0
30 17:35 S 9 10.00 A Few Clouds FEW080 84.2 64.4 51% 86 29.95 0.0
30 17:15 SW 10 10.00 Overcast OVC080 84.2 66.2 55% 87 29.96 0.0
30 16:55 SW 8 10.00 Mostly Cloudy FEW038 FEW049 BKN080 84.2 66.2 55% 87 29.96 0.0
30 16:35 SW 12 G 17 10.00 Mostly Cloudy SCT050 SCT060 BKN075 82.4 64.4 55% 84 29.96 0.0
30 16:15 S 12 G 17 10.00 Mostly Cloudy SCT037 BKN048 BKN060 84.2 66.2 55% 87 29.96 0.0
30 15:55 SW 9 10.00 Overcast BKN035 BKN042 OVC090 84.2 66.2 55% 87 29.96 0.0
30 15:36 SW 13 G 18 10.00 Overcast BKN033 OVC090 82.4 66.2 58% 85 29.97 0.0
30 15:15 S 10 10.00 Mostly Cloudy SCT031 BKN090 80.6 66.2 62% 83 29.97 0.0
30 14:55 S 8 10.00 Mostly Cloudy SCT026 SCT032 BKN080 80.6 66.2 62% 83 29.97 0.0
30 14:35 S 7 10.00 Overcast SCT024 SCT030 OVC075 80.6 68 66% 83 29.97 0.0
30 14:15 S 7 10.00 Overcast BKN020 OVC075 77 66.2 69% 79 29.98 0.0
30 13:55 SW 9 10.00 Overcast BKN018 BKN025 OVC075 77 66.2 76.8 65.8 69% 79 29.98 0.0
30 13:35 SW 8 10.00 Overcast BKN018 OVC075 75.2 66.2 74% 77 29.99 0.0
30 13:15 Vrbl 5 10.00 Overcast OVC016 75.2 66.2 74% 77 29.99 0.0
30 12:55 S 7 10.00 Overcast OVC016 73.4 66.2 78% 30 0.0
30 12:35 SW 5 10.00 Overcast OVC014 71.6 64.4 78% 30 0.0
30 12:15 S 5 10.00 Overcast OVC011 69.8 64.4 83% 30 0.0
30 11:55 SW 5 10.00 Overcast OVC011 69.8 64.4 83% 30.01 0.0 0.02
30 11:35 Vrbl 6 10.00 Light Rain BKN009 BKN020 OVC075 68 64.4 88% 30.01 0.0
30 11:15 S 7 10.00 Light Rain BKN009 BKN031 OVC080 68 64.4 88% 30.01 0.0
30 10:55 S 6 8.00 Light Rain BKN011 BKN031 OVC060 68 62.6 83% 30.01 0.0
30 10:35 S 7 10.00 Overcast FEW015 BKN070 OVC075 68 62.6 83% 30.02 0.0
30 10:15 S 8 10.00 Overcast FEW012 SCT060 OVC070 66.2 62.6 88% 30.02 0.0
30 09:55 S 9 7.00 Light Rain Fog/Mist SCT007 BKN016 OVC060 66.2 62.6 88% 30.03 0.0 0.2
30 09:35 S 6 3.00 Light Rain Fog/Mist BKN007 BKN017 OVC060 66.2 62.6 88% 30.04 0.0
30 09:15 S 7 4.00 Heavy Rain Fog/Mist SCT009 SCT037 OVC060 66.2 62.6 88% 30.04 0.0
30 08:55 S 7 9.00 Light Rain SCT036 OVC047 66.2 62.6 88% 30.04 0.0 0.02
30 08:35 S 7 10.00 Light Rain SCT044 BKN050 OVC065 66.2 62.6 88% 30.05 0.0
30 08:15 S 9 4.00 Light Rain Fog/Mist SCT050 BKN065 OVC075 66.2 62.6 88% 30.05 0.0
30 07:55 S 9 3.00 Light Rain Fog/Mist FEW027 BKN050 OVC075 66.2 62.6 67.1 64.9 88% 30.04 0.0 0.08
30 07:35 SW 6 9.00 Light Rain OVC075 66.2 62.6 88% 30.05 0.0
30 07:15 S 5 8.00 Light Rain OVC075 66.2 62.6 88% 30.04 0.0
30 06:55 SE 6 7.00 Light Rain Fog/Mist FEW050 BKN085 OVC100 66.2 62.6 88% 30.03 0.0 0.09
30 06:35 SW 8 4.00 Heavy Rain Fog/Mist FEW050 SCT065 BKN090 64.4 62.6 94% 30.06 0.0
30 06:15 Calm 9.00 Light Rain FEW050 OVC090 64.4 60.8 88% 30.04 0.0
30 05:55 E 3 5.00 Light Rain Fog/Mist SCT050 SCT070 BKN090 66.2 60.8 83% 30.02 0.0 0.07
30 05:35 SE 3 4.00 Rain Haze SCT060 BKN080 OVC090 66.2 60.8 83% 30.04 0.0
30 05:15 SE 6 10.00 Overcast FEW060 OVC090 66.2 60.8 83% 30.04 0.0
30 04:55 SE 3 10.00 Overcast OVC090 66.2 60.8 83% 30.04 0.0
30 04:35 SE 6 10.00 Overcast OVC090 66.2 60.8 83% 30.03 0.0
30 04:15 SE 5 6.00 Fog/Mist OVC090 66.2 62.6 88% 30.04 0.0
30 03:55 E 3 7.00 Light Rain OVC090 66.2 62.6 88% 30.06 0.0
30 03:35 SE 3 10.00 Overcast OVC090 66.2 62.6 88% 30.05 0.0
30 03:15 SE 3 10.00 Overcast OVC090 66.2 62.6 88% 30.06 0.0
30 02:55 Vrbl 2 10.00 Overcast OVC100 66.2 62.6 88% 30.07 0.0
30 02:35 Vrbl 3 9.00 Light Rain OVC100 66.2 62.6 88% 30.06 0.0
30 02:15 S 3 10.00 Light Rain OVC100 66.2 60.8 83% 30.09 0.0
30 01:55 SE 1 10.00 Overcast OVC090 66.2 62.6 73.9 65.3 88% 30.08 0.0
30 01:35 E 2 10.00 Overcast BKN090 OVC100 66.2 62.6 88% 30.08 0.0
30 01:15 E 6 10.00 Overcast OVC100 66.2 62.6 88% 30.08 0.0
30 00:55 SE 3 10.00 Overcast OVC100 66.2 62.6 88% 30.08 0.0
30 00:35 E 2 9.00 Overcast OVC100 66.2 62.6 88% 30.08 0.0
30 00:15 E 3 7.00 Fog/Mist OVC100 66.2 62.6 88% 30.08 0.0
29 23:55 E 3 10.00 Overcast FEW046 SCT070 OVC090 66.2 62.6 88% 30.08 0.0 0.03
29 23:35 E 3 10.00 Overcast SCT044 SCT065 OVC090 66.2 62.6 88% 30.08 0.0
29 23:15 Calm 5.00 Light Rain Fog/Mist SCT041 SCT050 OVC090 68 64.4 88% 30.09 0.0
29 22:55 N 1 7.00 Light Rain SCT050 OVC090 66.2 64.4 94% 30.09 0.0
29 22:35 E 2 6.00 Fog/Mist SCT060 SCT070 OVC090 68 64.4 88% 30.08 0.0
29 22:15 E 2 8.00 Overcast FEW060 BKN070 OVC090 66.2 64.4 94% 30.08 0.0
29 21:55 E 3 8.00 Light Rain SCT060 BKN085 OVC100 66.2 64.4 94% 30.08 0.0 0.02
29 21:36 Vrbl 2 10.00 Light Rain SCT060 SCT075 OVC090 68 64.4 88% 30.08 0.0
29 21:15 NW 2 9.00 Light Rain FEW046 OVC090 68 64.4 88% 30.08 0.0
29 20:55 N 2 10.00 Light Rain OVC090 68 64.4 88% 30.07 0.0
29 20:35 S 1 10.00 Light Rain OVC090 71.6 60.8 69% 30.07 0.0
29 20:15 SW 5 10.00 Light Rain OVC100 73.4 60.8 65% 30.07 0.0
29 19:35 Vrbl 6 10.00 Light Rain OVC090 75.2 60.8 61% 77 30.07 0.0
29 19:15 SW 5 10.00 Overcast BKN090 OVC110 75.2 59 57% 78 30.07 0.0
29 18:55 SW 8 10.00 Overcast OVC110 77 59 54% 79 30.07 0.0
29 18:35 SW 8 10.00 Mostly Cloudy BKN110 77 57.2 51% 79 30.07 0.0
29 18:15 SW 10 10.00 Mostly Cloudy BKN110 77 57.2 51% 79 30.07 0.0
29 17:55 SW 7 10.00 A Few Clouds FEW120 78.8 59 51% 80 30.08 0.0
29 17:35 W 8 10.00 A Few Clouds FEW120 77 59 54% 79 30.08 0.0
29 17:15 SW 9 10.00 A Few Clouds FEW044 FEW110 77 59 54% 79 30.08 0.0
29 16:55 W 8 10.00 Partly Cloudy SCT044 78.8 59 51% 80 30.09 0.0
29 16:35 W 12 10.00 Fair CLR 78.8 59 51% 80 30.09 0.0
29 16:15 SW 10 10.00 A Few Clouds FEW044 FEW050 78.8 59 51% 80 30.1 0.0
29 15:55 W 13 G 17 10.00 Mostly Cloudy SCT043 BKN050 BKN060 78.8 59 51% 80 30.1 0.0
29 15:35 W 15 10.00 Mostly Cloudy SCT043 BKN050 BKN070 78.8 59 51% 80 30.11 0.0
29 15:15 SW 12 10.00 Mostly Cloudy BKN045 BKN050 78.8 59 51% 80 30.11 0.0
29 14:55 SW 14 10.00 Partly Cloudy SCT045 SCT060 SCT070 80.6 59 48% 81 30.11 0.0
29 14:35 W 14 G 17 10.00 Mostly Cloudy SCT047 BKN060 BKN070 80.6 59 48% 81 30.11 0.0
29 14:15 SW 13 G 17 10.00 Mostly Cloudy SCT047 BKN070 80.6 59 48% 81 30.11 0.0
29 13:55 W 13 G 17 10.00 Mostly Cloudy SCT047 SCT055 BKN065 82.4 59 83.1 62.6 45% 82 30.12 0.0
29 13:35 SW 10 10.00 Partly Cloudy SCT045 SCT065 82.4 57.2 42% 82 30.12 0.0
29 13:15 SW 15 G 20 10.00 Partly Cloudy SCT045 SCT050 82.4 59 45% 82 30.12 0.0
29 12:56 SW 14 10.00 A Few Clouds FEW041 FEW050 82.4 59 45% 82 30.12 0.0
29 12:35 SW 12 G 17 10.00 A Few Clouds FEW041 80.6 59 48% 81 30.13 0.0
Date Time (edt) Wind (mph) Vis. (mi.) Weather Sky Cond. Air Dwpt Max. Min. Relative Humidity Wind Chill (°F) Heat Index (°F) altimeter (in) sea level (mb) 1 hr 3 hr 6 hr
6 hour
Temperature (ºF) Pressure Precipitation (in)